createdAt,value
2019-03-08T00:01:58.038Z,46.17
2019-03-08T00:04:28.195Z,39.67
2019-03-08T00:06:59.277Z,40.00
2019-03-08T00:09:32.327Z,44.07
2019-03-08T00:12:04.110Z,38.50
2019-03-08T00:14:34.310Z,39.73
2019-03-08T00:17:04.550Z,55.83
2019-03-08T00:19:34.818Z,57.27
2019-03-08T00:22:11.437Z,56.57
2019-03-08T00:24:41.690Z,60.10
2019-03-08T00:27:11.894Z,58.37
2019-03-08T00:29:42.926Z,50.97
2019-03-08T00:32:15.111Z,50.40
2019-03-08T00:34:45.278Z,48.27
2019-03-08T00:37:15.602Z,46.53
2019-03-08T00:39:45.854Z,47.87
2019-03-08T00:42:16.053Z,47.07
2019-03-08T00:44:46.275Z,45.80
2019-03-08T00:47:16.497Z,46.47
2019-03-08T00:49:46.769Z,42.77
2019-03-08T00:52:16.941Z,44.87
2019-03-08T00:54:47.281Z,45.43
2019-03-08T00:57:18.404Z,44.93
2019-03-08T00:59:48.905Z,48.70
2019-03-08T01:02:20.401Z,47.20
2019-03-08T01:04:50.600Z,50.30
2019-03-08T01:07:20.791Z,49.13
2019-03-08T01:09:51.043Z,46.07
2019-03-08T01:12:21.488Z,44.27
2019-03-08T01:14:51.716Z,43.33
2019-03-08T01:17:22.200Z,44.40
2019-03-08T01:19:52.387Z,44.23
2019-03-08T01:22:22.588Z,49.67
2019-03-08T01:24:52.832Z,45.30
2019-03-08T01:27:23.054Z,42.97
2019-03-08T01:29:53.495Z,46.03
2019-03-08T01:32:23.669Z,42.83
2019-03-08T01:34:53.774Z,48.00
2019-03-08T01:37:24.039Z,48.50
2019-03-08T01:39:54.317Z,43.07
2019-03-08T01:42:24.526Z,46.10
2019-03-08T01:44:54.654Z,47.10
2019-03-08T01:47:25.002Z,47.37
2019-03-08T01:49:55.169Z,44.53
2019-03-08T01:52:25.326Z,37.20
2019-03-08T01:54:55.639Z,45.67
2019-03-08T01:57:25.930Z,43.27
2019-03-08T01:59:57.151Z,47.60
2019-03-08T02:02:27.442Z,48.63
2019-03-08T02:04:57.772Z,53.47
2019-03-08T02:07:27.794Z,40.93
2019-03-08T02:09:58.121Z,56.13
2019-03-08T02:12:28.463Z,55.60
2019-03-08T02:14:58.627Z,55.37
2019-03-08T02:17:28.754Z,46.70
2019-03-08T02:19:58.945Z,42.43
2019-03-08T02:22:29.524Z,48.07
2019-03-08T02:24:59.779Z,40.87
2019-03-08T02:27:30.011Z,38.67
2019-03-08T02:30:00.414Z,43.00
2019-03-08T02:32:30.769Z,39.07
2019-03-08T02:35:01.246Z,40.93
2019-03-08T02:37:31.446Z,36.10
2019-03-08T02:40:01.791Z,33.00
2019-03-08T02:42:32.142Z,39.03
2019-03-08T02:45:02.345Z,35.27
2019-03-08T02:47:32.914Z,30.80
2019-03-08T02:50:03.115Z,35.90
2019-03-08T02:52:33.358Z,44.57
2019-03-08T02:55:03.586Z,41.70
2019-03-08T02:57:33.738Z,36.17
2019-03-08T03:00:04.011Z,33.03
2019-03-08T03:02:35.180Z,30.60
2019-03-08T03:05:05.893Z,33.70
2019-03-08T03:07:36.098Z,35.93
2019-03-08T03:10:06.801Z,54.77
2019-03-08T03:12:37.255Z,39.73
2019-03-08T03:15:08.185Z,41.07
2019-03-08T03:17:38.470Z,43.10
2019-03-08T03:20:08.905Z,32.20
2019-03-08T03:22:39.161Z,38.93
2019-03-08T03:25:09.455Z,30.97
2019-03-08T03:27:39.725Z,29.93
2019-03-08T03:30:10.246Z,43.40
2019-03-08T03:32:40.481Z,41.17
2019-03-08T03:35:10.723Z,34.67
2019-03-08T03:37:40.925Z,39.50
2019-03-08T03:40:11.894Z,60.40
2019-03-08T03:42:42.078Z,67.67
2019-03-08T03:45:12.650Z,53.93
2019-03-08T03:47:42.909Z,69.17
2019-03-08T03:50:13.415Z,73.43
2019-03-08T03:52:43.926Z,73.17
2019-03-08T03:55:14.738Z,74.77
2019-03-08T03:57:44.939Z,76.90
2019-03-08T04:00:16.460Z,63.30
2019-03-08T04:02:46.711Z,63.03
2019-03-08T04:05:18.062Z,50.23
2019-03-08T04:07:48.413Z,63.87
2019-03-08T04:10:19.313Z,47.97
2019-03-08T04:12:49.488Z,62.10
2019-03-08T04:15:19.731Z,43.63
2019-03-08T04:17:50.297Z,46.93
2019-03-08T04:20:20.510Z,52.93
2019-03-08T04:22:50.697Z,64.07
2019-03-08T04:25:20.956Z,58.97
2019-03-08T04:27:51.231Z,35.17
2019-03-08T04:30:21.846Z,48.93
2019-03-08T04:32:52.192Z,35.97
2019-03-08T04:35:22.409Z,43.97
2019-03-08T04:37:52.619Z,34.30
2019-03-08T04:40:22.943Z,44.13
2019-03-08T04:42:53.206Z,53.20
2019-03-08T04:45:23.377Z,39.50
2019-03-08T04:47:53.615Z,52.03
2019-03-08T04:50:23.871Z,46.87
2019-03-08T04:52:54.046Z,45.30
2019-03-08T04:55:24.326Z,45.97
2019-03-08T04:57:54.549Z,52.30
2019-03-08T05:00:24.754Z,46.10
2019-03-08T05:02:55.047Z,48.53
2019-03-08T05:05:25.263Z,47.23
2019-03-08T05:07:56.397Z,44.53
2019-03-08T05:10:26.779Z,43.90
2019-03-08T05:12:56.954Z,38.70
2019-03-08T05:15:27.098Z,38.50
2019-03-08T05:17:58.508Z,32.03
2019-03-08T05:20:28.894Z,40.97
2019-03-08T05:22:59.401Z,34.83
2019-03-08T05:25:29.679Z,32.63
2019-03-08T05:28:00.022Z,32.53
2019-03-08T05:30:30.211Z,35.43
2019-03-08T05:33:00.453Z,31.93
2019-03-08T05:35:30.615Z,34.67
2019-03-08T05:38:00.802Z,32.80
2019-03-08T05:40:31.229Z,31.83
2019-03-08T05:43:01.482Z,26.50
2019-03-08T05:45:31.830Z,34.47
2019-03-08T05:48:02.026Z,60.33
2019-03-08T05:50:32.206Z,51.07
2019-03-08T05:53:02.367Z,33.83
2019-03-08T05:55:32.590Z,43.97
2019-03-08T05:58:02.813Z,35.57
2019-03-08T06:00:34.882Z,35.30
2019-03-08T06:03:05.361Z,35.80
2019-03-08T06:05:35.520Z,33.17
2019-03-08T06:08:05.708Z,32.73
2019-03-08T06:10:37.015Z,28.80
2019-03-08T06:13:08.043Z,34.80
2019-03-08T06:15:38.257Z,31.70
2019-03-08T06:18:08.509Z,37.13
2019-03-08T06:20:38.646Z,37.73
2019-03-08T06:23:10.048Z,37.80
2019-03-08T06:25:40.289Z,29.33
2019-03-08T06:28:10.824Z,31.57
2019-03-08T06:30:41.682Z,36.83
2019-03-08T06:33:13.674Z,35.53
2019-03-08T06:35:43.921Z,34.77
2019-03-08T06:38:14.200Z,55.17
2019-03-08T06:40:44.460Z,57.73
2019-03-08T06:43:15.002Z,66.67
2019-03-08T06:45:45.478Z,61.13
2019-03-08T06:48:15.874Z,55.13
2019-03-08T06:50:46.077Z,48.80
2019-03-08T06:53:16.442Z,46.60
2019-03-08T06:55:47.794Z,48.43
2019-03-08T06:58:28.243Z,47.77
2019-03-08T07:01:11.481Z,45.30
2019-03-08T07:03:42.428Z,43.67
2019-03-08T07:06:12.628Z,41.60
2019-03-08T07:08:42.974Z,38.97
2019-03-08T07:11:14.113Z,36.63
2019-03-08T07:13:44.393Z,43.20
2019-03-08T07:16:14.951Z,39.43
2019-03-08T07:18:45.546Z,36.10
2019-03-08T07:21:26.964Z,40.70
2019-03-08T07:24:02.898Z,38.90
2019-03-08T07:27:08.784Z,37.57
2019-03-08T07:29:55.682Z,41.23
2019-03-08T07:32:43.737Z,42.20
2019-03-08T07:35:33.927Z,39.90
2019-03-08T07:38:21.658Z,40.17
2019-03-08T07:41:01.812Z,38.57
2019-03-08T07:43:40.317Z,40.23
2019-03-08T07:46:29.902Z,37.67
2019-03-08T07:49:22.459Z,39.00
2019-03-08T07:52:12.021Z,38.40
2019-03-08T07:55:16.547Z,39.83
2019-03-08T07:58:25.275Z,38.37
2019-03-08T08:01:20.375Z,35.40
2019-03-08T08:04:04.103Z,34.73
2019-03-08T08:06:52.051Z,37.63
2019-03-08T08:09:28.415Z,40.67
2019-03-08T08:12:11.728Z,38.70
2019-03-08T08:14:57.425Z,35.67
2019-03-08T08:17:37.580Z,34.77
2019-03-08T08:20:31.353Z,36.83
2019-03-08T08:23:34.008Z,35.33
2019-03-08T08:26:26.684Z,34.53
2019-03-08T08:29:15.234Z,34.23
2019-03-08T08:32:07.675Z,34.17
2019-03-08T08:34:53.564Z,33.80
2019-03-08T08:37:43.333Z,33.57
2019-03-08T08:40:38.549Z,30.00
2019-03-08T08:43:20.565Z,34.30
2019-03-08T08:46:08.590Z,33.80
2019-03-08T08:48:53.963Z,34.33
2019-03-08T08:51:45.894Z,36.90
2019-03-08T08:54:53.387Z,36.43
2019-03-08T08:57:42.862Z,38.10
2019-03-08T09:00:26.585Z,34.53
2019-03-08T09:03:14.225Z,35.20
2019-03-08T09:05:53.359Z,35.70
2019-03-08T09:08:49.075Z,37.03
2019-03-08T09:11:31.359Z,36.63
2019-03-08T09:14:16.346Z,34.57
2019-03-08T09:17:05.613Z,34.80
2019-03-08T09:19:59.350Z,35.07
2019-03-08T09:22:51.213Z,34.60
2019-03-08T09:25:46.419Z,30.33
2019-03-08T09:28:34.960Z,30.53
2019-03-08T09:31:24.988Z,29.60
2019-03-08T09:34:03.166Z,31.17
2019-03-08T09:36:51.304Z,28.80
2019-03-08T09:39:49.485Z,30.03
2019-03-08T09:42:44.892Z,29.43
2019-03-08T09:45:23.626Z,29.73
2019-03-08T09:48:07.557Z,32.47
2019-03-08T09:50:50.171Z,29.50
2019-03-08T09:53:45.887Z,30.57
2019-03-08T09:56:33.619Z,28.30
2019-03-08T09:59:17.561Z,25.07
2019-03-08T10:02:01.712Z,25.87
2019-03-08T10:04:47.599Z,24.73
2019-03-08T10:07:38.843Z,24.53
2019-03-08T10:10:30.740Z,27.17
2019-03-08T10:13:26.766Z,30.73
2019-03-08T10:16:02.926Z,21.87
2019-03-08T10:18:55.986Z,26.47
2019-03-08T10:21:45.147Z,21.43
2019-03-08T10:24:30.526Z,21.57
2019-03-08T10:27:19.689Z,14.17
2019-03-08T10:30:14.997Z,16.20
2019-03-08T10:33:04.265Z,11.73
2019-03-08T10:35:44.408Z,21.20
2019-03-08T10:38:33.586Z,16.70
2019-03-08T10:41:26.539Z,14.40
2019-03-08T10:44:24.716Z,12.70
2019-03-08T10:47:31.100Z,11.43
2019-03-08T10:50:25.983Z,8.53
2019-03-08T10:53:18.220Z,10.10
2019-03-08T10:55:56.677Z,11.87
2019-03-08T10:58:44.878Z,11.73
2019-03-08T11:01:33.837Z,12.67
2019-03-08T11:04:29.147Z,10.63
2019-03-08T11:07:18.334Z,9.33
2019-03-08T11:10:06.561Z,10.17
2019-03-08T11:12:49.883Z,8.80
2019-03-08T11:15:57.175Z,10.73
2019-03-08T11:18:50.336Z,10.13
2019-03-08T11:21:39.497Z,11.93
2019-03-08T11:24:28.766Z,11.03
2019-03-08T11:27:16.805Z,11.53
2019-03-08T11:30:04.638Z,10.40
2019-03-08T11:32:46.383Z,9.60
2019-03-08T11:35:36.700Z,10.43
2019-03-08T11:38:14.281Z,9.43
2019-03-08T11:41:12.960Z,9.67
2019-03-08T11:44:03.193Z,8.30
2019-03-08T11:46:57.362Z,8.50
2019-03-08T11:49:52.380Z,8.30
2019-03-08T11:52:50.656Z,6.93
2019-03-08T11:55:38.491Z,7.47
2019-03-08T11:58:26.532Z,7.47
2019-03-08T12:01:17.292Z,8.23
2019-03-08T12:04:08.034Z,9.50
2019-03-08T12:06:45.787Z,10.20
2019-03-08T12:09:32.336Z,9.77
2019-03-08T12:12:40.239Z,9.65
2019-03-08T12:15:32.898Z,9.00
2019-03-08T12:18:28.299Z,9.03
2019-03-08T12:21:17.157Z,9.03
2019-03-08T12:24:04.583Z,9.03
2019-03-08T12:27:04.688Z,9.70
2019-03-08T12:29:52.435Z,9.20
2019-03-08T12:32:36.985Z,9.50
2019-03-08T12:35:32.200Z,9.05
2019-03-08T12:38:14.975Z,7.83
2019-03-08T12:40:53.939Z,7.83
2019-03-08T12:43:56.928Z,6.20
2019-03-08T12:46:44.866Z,6.90
2019-03-08T12:49:32.907Z,7.25
2019-03-08T12:52:10.394Z,6.62
2019-03-08T12:55:14.920Z,5.58
2019-03-08T12:57:55.484Z,5.03
2019-03-08T13:00:35.823Z,6.47
2019-03-08T13:03:32.856Z,5.83
2019-03-08T13:06:20.207Z,5.22
2019-03-08T13:08:56.995Z,5.95
2019-03-08T13:11:33.276Z,6.45
2019-03-08T13:13:59.318Z,7.05
2019-03-08T13:16:29.761Z,7.05
2019-03-08T13:18:59.979Z,7.03
2019-03-08T13:21:30.189Z,8.70
2019-03-08T13:24:01.270Z,7.12
2019-03-08T13:26:31.804Z,7.05
2019-03-08T13:29:01.977Z,7.80
2019-03-08T13:31:32.255Z,7.45
2019-03-08T13:34:02.518Z,5.53
2019-03-08T13:36:32.731Z,6.60
2019-03-08T13:39:03.382Z,7.70
2019-03-08T13:41:48.398Z,7.85
2019-03-08T13:44:20.150Z,7.00
2019-03-08T13:46:50.279Z,7.83
2019-03-08T13:49:20.850Z,7.17
2019-03-08T13:51:50.869Z,6.45
2019-03-08T13:54:21.214Z,6.53
2019-03-08T13:56:51.791Z,6.60
2019-03-08T13:59:24.622Z,7.03
2019-03-08T14:02:01.887Z,6.50
2019-03-08T14:04:32.870Z,7.72
2019-03-08T14:07:03.873Z,6.62
2019-03-08T14:09:34.190Z,6.75
2019-03-08T14:12:04.356Z,5.87
2019-03-08T14:14:34.830Z,6.40
2019-03-08T14:17:15.334Z,6.85
2019-03-08T14:19:47.738Z,7.58
2019-03-08T14:22:19.637Z,7.37
2019-03-08T14:24:53.644Z,7.12
2019-03-08T14:27:24.704Z,6.22
2019-03-08T14:29:55.221Z,6.72
2019-03-08T14:32:26.953Z,7.33
2019-03-08T14:34:57.346Z,6.85
2019-03-08T14:37:27.871Z,7.72
2019-03-08T14:39:58.201Z,7.08
2019-03-08T14:42:49.091Z,7.47
2019-03-08T14:45:28.026Z,7.12
2019-03-08T14:47:59.719Z,5.78
2019-03-08T14:50:31.866Z,5.78
2019-03-08T14:53:01.845Z,6.67
2019-03-08T14:55:32.172Z,5.85
2019-03-08T14:58:02.398Z,6.80
2019-03-08T15:00:32.710Z,6.10
2019-03-08T15:03:07.047Z,6.80
2019-03-08T15:05:37.247Z,6.33
2019-03-08T15:08:07.522Z,6.50
2019-03-08T15:10:39.736Z,6.17
2019-03-08T15:13:11.330Z,6.65
2019-03-08T15:15:41.537Z,6.30
2019-03-08T15:18:11.801Z,6.22
2019-03-08T15:20:41.979Z,6.97
2019-03-08T15:23:13.449Z,6.00
2019-03-08T15:25:49.058Z,6.05
2019-03-08T15:28:17.655Z,6.47
2019-03-08T15:30:48.015Z,6.12
2019-03-08T15:33:19.318Z,6.58
2019-03-08T15:35:49.499Z,6.08
2019-03-08T15:38:19.755Z,6.47
2019-03-08T15:40:51.876Z,6.05
2019-03-08T15:43:31.484Z,5.28
2019-03-08T15:46:04.043Z,6.22
2019-03-08T15:48:39.987Z,4.95
2019-03-08T15:51:12.096Z,5.75
2019-03-08T15:53:43.537Z,5.90
2019-03-08T15:56:14.897Z,5.40
2019-03-08T15:58:45.191Z,5.05
2019-03-08T16:01:20.100Z,4.85
2019-03-08T16:03:47.899Z,4.53
2019-03-08T16:06:19.856Z,4.37
2019-03-08T16:08:50.861Z,4.00
2019-03-08T16:11:31.374Z,4.33
2019-03-08T16:14:08.758Z,4.90
2019-03-08T16:16:36.648Z,4.45
2019-03-08T16:19:06.920Z,3.83
2019-03-08T16:21:38.562Z,4.10
2019-03-08T16:24:14.867Z,3.08
2019-03-08T16:26:49.687Z,2.60
2019-03-08T16:29:29.028Z,3.62
2019-03-08T16:32:07.602Z,3.42
2019-03-08T16:34:37.463Z,2.98
2019-03-08T16:37:27.015Z,3.67
2019-03-08T16:40:26.530Z,4.30
2019-03-08T16:43:16.848Z,4.92
2019-03-08T16:46:31.175Z,6.55
2019-03-08T16:49:18.784Z,3.08
2019-03-08T16:52:25.779Z,2.15
2019-03-08T16:55:13.816Z,2.55
2019-03-08T16:58:09.431Z,1.22
2019-03-08T17:01:08.225Z,1.98
2019-03-08T17:04:05.067Z,1.70
2019-03-08T17:06:50.139Z,2.57
2019-03-08T17:09:40.019Z,1.77
2019-03-08T17:12:49.154Z,2.77
2019-03-08T17:15:44.973Z,2.90
2019-03-08T17:18:29.339Z,2.90
2019-03-08T17:21:31.494Z,3.87
2019-03-08T17:24:11.281Z,2.83
2019-03-08T17:26:57.435Z,3.50
2019-03-08T17:29:47.316Z,2.90
2019-03-08T17:32:39.349Z,2.83
2019-03-08T17:35:37.627Z,2.93
2019-03-08T17:38:25.668Z,3.00
2019-03-08T17:41:26.914Z,3.17
2019-03-08T17:44:19.254Z,4.87
2019-03-08T17:46:57.657Z,4.27
2019-03-08T17:49:45.399Z,4.07
2019-03-08T17:52:41.731Z,4.07
2019-03-08T17:55:30.590Z,2.60
2019-03-08T17:58:22.738Z,2.43
2019-03-08T18:01:10.557Z,3.70
2019-03-08T18:04:12.282Z,3.00
2019-03-08T18:06:53.994Z,3.20
2019-03-08T18:09:34.469Z,3.83
2019-03-08T18:12:23.428Z,3.37
2019-03-08T18:15:16.486Z,2.07
2019-03-08T18:17:58.585Z,3.10
2019-03-08T18:20:50.514Z,2.60
2019-03-08T18:23:39.782Z,3.00
2019-03-08T18:26:31.612Z,2.80
2019-03-08T18:29:29.789Z,2.67
2019-03-08T18:32:14.245Z,2.93
2019-03-08T18:35:09.550Z,3.07
2019-03-08T18:38:17.249Z,3.10
2019-03-08T18:41:12.405Z,2.43
2019-03-08T18:44:00.496Z,3.53
2019-03-08T18:46:48.541Z,3.50
2019-03-08T18:49:40.205Z,3.53
2019-03-08T18:52:18.138Z,4.23
2019-03-08T18:55:07.322Z,3.70
2019-03-08T18:58:06.422Z,3.33
2019-03-08T19:00:57.431Z,3.80
2019-03-08T19:03:59.194Z,3.87
2019-03-08T19:06:37.706Z,5.30
2019-03-08T19:09:27.791Z,4.10
2019-03-08T19:12:09.987Z,4.10
2019-03-08T19:14:53.005Z,4.63
2019-03-08T19:17:49.859Z,5.23
2019-03-08T19:20:40.758Z,5.23
2019-03-08T19:23:19.896Z,6.27
2019-03-08T19:26:15.327Z,6.43
2019-03-08T19:28:54.744Z,6.27
2019-03-08T19:31:43.909Z,5.03
2019-03-08T19:34:24.974Z,6.03
2019-03-08T19:37:17.222Z,6.10
2019-03-08T19:40:05.262Z,5.13
2019-03-08T19:42:54.220Z,5.40
2019-03-08T19:45:50.245Z,4.40
2019-03-08T19:48:37.678Z,4.80
2019-03-08T19:51:20.385Z,4.37
2019-03-08T19:53:56.237Z,5.17
2019-03-08T19:57:00.564Z,5.07
2019-03-08T19:59:58.110Z,5.33
2019-03-08T20:02:41.970Z,5.77
2019-03-08T20:05:18.634Z,5.77
2019-03-08T20:08:07.490Z,5.57
2019-03-08T20:10:57.066Z,6.40
2019-03-08T20:13:49.507Z,6.93
2019-03-08T20:16:37.341Z,5.13
2019-03-08T20:19:25.891Z,6.53
2019-03-08T20:22:21.199Z,5.33
2019-03-08T20:25:29.105Z,5.73
2019-03-08T20:28:08.622Z,4.80
2019-03-08T20:30:48.386Z,4.70
2019-03-08T20:33:36.530Z,4.30
2019-03-08T20:36:44.841Z,5.50
2019-03-08T20:39:39.170Z,4.23
2019-03-08T20:42:34.436Z,4.87
2019-03-08T20:45:11.829Z,6.50
2019-03-08T20:47:42.077Z,16.50
2019-03-08T20:50:12.566Z,8.17
2019-03-08T20:52:42.917Z,6.33
2019-03-08T20:55:13.446Z,5.70
2019-03-08T20:57:43.641Z,3.40
2019-03-08T21:00:14.750Z,3.33
2019-03-08T21:02:45.000Z,3.10
2019-03-08T21:05:15.334Z,3.37
2019-03-08T21:07:45.664Z,3.73
2019-03-08T21:10:15.978Z,3.23
2019-03-08T21:12:46.554Z,2.70
2019-03-08T21:15:24.927Z,4.17
2019-03-08T21:17:48.899Z,4.27
2019-03-08T21:20:18.997Z,3.53
2019-03-08T21:22:49.241Z,3.83
2019-03-08T21:25:19.586Z,3.33
2019-03-08T21:27:49.871Z,3.30
2019-03-08T21:30:20.346Z,3.60
2019-03-08T21:32:50.575Z,3.30
2019-03-08T21:35:20.893Z,3.40
2019-03-08T21:37:51.382Z,3.70
2019-03-08T21:40:21.596Z,3.50
2019-03-08T21:42:51.867Z,3.70
2019-03-08T21:45:22.394Z,3.73
2019-03-08T21:47:52.676Z,3.33
2019-03-08T21:50:23.009Z,3.63
2019-03-08T21:52:53.326Z,3.33
2019-03-08T21:55:23.576Z,3.83
2019-03-08T21:57:53.868Z,3.37
2019-03-08T22:00:24.606Z,2.80
2019-03-08T22:02:54.810Z,3.93
2019-03-08T22:05:27.910Z,3.43
2019-03-08T22:07:58.180Z,4.13
2019-03-08T22:10:49.227Z,3.50
2019-03-08T22:13:19.550Z,3.50
2019-03-08T22:15:49.548Z,3.60
2019-03-08T22:18:19.639Z,3.60
2019-03-08T22:20:50.214Z,3.83
2019-03-08T22:23:20.480Z,3.20
2019-03-08T22:25:50.651Z,3.43
2019-03-08T22:28:20.957Z,3.80
2019-03-08T22:30:51.143Z,3.57
2019-03-08T22:33:21.572Z,3.90
2019-03-08T22:35:51.732Z,4.20
2019-03-08T22:38:23.405Z,5.07
2019-03-08T22:40:54.532Z,3.77
2019-03-08T22:43:24.786Z,5.17
2019-03-08T22:45:55.146Z,4.50
2019-03-08T22:48:25.425Z,4.90
2019-03-08T22:50:55.687Z,4.57
2019-03-08T22:53:25.913Z,4.90
2019-03-08T22:55:56.233Z,3.90
2019-03-08T22:58:26.527Z,4.40
2019-03-08T23:01:16.284Z,6.43
2019-03-08T23:03:46.624Z,15.80
2019-03-08T23:06:17.143Z,16.40
2019-03-08T23:08:47.343Z,14.97
2019-03-08T23:11:17.465Z,7.17
2019-03-08T23:13:47.644Z,7.00
2019-03-08T23:16:17.650Z,6.97
2019-03-08T23:18:47.937Z,6.03
2019-03-08T23:21:18.208Z,6.07
2019-03-08T23:23:48.289Z,6.93
2019-03-08T23:26:18.530Z,6.10
2019-03-08T23:28:55.997Z,6.50
2019-03-08T23:31:54.275Z,4.57
2019-03-08T23:34:24.375Z,5.73
2019-03-08T23:36:54.558Z,5.90
2019-03-08T23:39:24.836Z,7.03
2019-03-08T23:41:56.024Z,4.83
2019-03-08T23:44:26.346Z,4.30
2019-03-08T23:46:56.731Z,5.60
2019-03-08T23:49:27.017Z,4.37
2019-03-08T23:51:57.155Z,4.27
2019-03-08T23:54:27.478Z,5.23
2019-03-08T23:56:57.690Z,4.93
2019-03-08T23:59:27.839Z,4.93
